Time;durP1;ratioP1;P1;durP2;ratioP2;P2;SDS_P1;SDS_P2;PMS_P1;PMS_P2;Temp;Humidity;BMP_temperature;BMP_pressure;BME280_temperature;BME280_humidity;BME280_pressure;Samples;Min_cycle;Max_cycle;Signal;HPM_P1;HPM_P2
2021/05/27 00:00:01;;;;;;;;;;;;;;;13.30;69.21;92661.44;2072033;69;20091;-82
2021/05/27 00:02:26;;;;;;;;;;;;;;;13.23;68.93;92663.19;2072091;69;20041;-82
2021/05/27 00:04:52;;;;;;;;;;;;;;;13.16;70.44;92667.81;2072214;69;20501;-83
2021/05/27 00:07:18;;;;;;;;;;;;;;;12.95;69.96;92670.94;2068773;69;20076;-81
2021/05/27 00:09:43;;;;;;;;;;;;;;;13.05;70.79;92667.91;2072146;69;20084;-82
2021/05/27 00:12:09;;;;;;;;;;;;;;;13.07;70.20;92673.66;2072095;69;20051;-82
2021/05/27 00:14:35;;;;;;;;;;;;;;;13.18;69.24;92676.38;2072167;69;20092;-81
2021/05/27 00:17:00;;;;;;;;;;;;;;;13.10;69.94;92673.16;2068787;69;20496;-81
2021/05/27 00:19:26;;;;;;;;;;;;;;;12.96;70.63;92673.13;2071995;69;20431;-82
2021/05/27 00:21:51;;;;;;;;;;;;;;;12.95;71.32;92668.84;2071964;69;20061;-84
2021/05/27 00:24:17;;;;;;;;;;;;;;;12.89;70.93;92671.38;2072175;69;20100;-81
2021/05/27 00:26:43;;;;;;;;;;;;;;;13.06;70.74;92670.13;2071820;69;20409;-81
2021/05/27 00:29:09;;;;;;;;;;;;;;;13.03;71.42;92674.19;2071800;69;20117;-82
2021/05/27 00:31:34;;;;;;;;;;;;;;;13.10;70.49;92670.31;2068776;69;20041;-87
2021/05/27 00:34:00;;;;;;;;;;;;;;;13.12;70.27;92664.03;2071791;69;20255;-86
2021/05/27 00:36:27;;;;;;;;;;;;;;;13.07;70.38;92665.19;2071462;69;20056;-82
2021/05/27 00:38:52;;;;;;;;;;;;;;;13.10;70.60;92669.56;2071244;69;20477;-81
2021/05/27 00:41:18;;;;;;;;;;;;;;;13.09;70.85;92666.00;2071616;69;20060;-81
2021/05/27 00:43:43;;;;;;;;;;;;;;;13.04;70.95;92666.44;2071694;69;20037;-81
2021/05/27 00:46:09;;;;;;;;;;;;;;;13.19;70.38;92675.03;2071563;69;20094;-80
2021/05/27 00:51:18;;;;;;;;;;;;;;;12.95;71.56;92690.72;2068376;69;20049;-81
2021/05/27 00:53:45;;;;;;;;;;;;;;;12.78;71.61;92686.31;2071630;69;20191;-82
2021/05/27 00:56:11;;;;;;;;;;;;;;;12.89;70.70;92682.66;2071547;69;20073;-82
2021/05/27 00:58:43;;;;;;;;;;;;;;;12.82;71.15;92688.63;2068365;69;20092;-82
2021/05/27 01:01:08;;;;;;;;;;;;;;;12.94;72.20;92683.59;2071649;69;20071;-82
2021/05/27 01:03:35;;;;;;;;;;;;;;;12.51;73.40;92687.03;2071627;69;20048;-81
2021/05/27 01:06:01;;;;;;;;;;;;;;;12.41;73.30;92692.84;2068222;69;20044;-81
2021/05/27 01:08:31;;;;;;;;;;;;;;;12.70;72.50;92680.25;2071902;69;20416;-81
2021/05/27 01:10:57;;;;;;;;;;;;;;;12.71;73.45;92670.41;2071430;69;20111;-81
2021/05/27 01:13:24;;;;;;;;;;;;;;;12.64;73.25;92669.34;2071473;69;20053;-83
2021/05/27 01:15:50;;;;;;;;;;;;;;;12.57;73.66;92666.84;2071336;69;20588;-81
2021/05/27 01:18:17;;;;;;;;;;;;;;;12.66;72.57;92663.09;2068443;69;20148;-82
2021/05/27 01:20:44;;;;;;;;;;;;;;;12.64;73.53;92674.25;2068694;69;20439;-80
2021/05/27 01:23:10;;;;;;;;;;;;;;;12.62;72.97;92672.06;2071865;69;20202;-85
2021/05/27 01:25:39;;;;;;;;;;;;;;;12.63;73.46;92672.81;2068243;69;20048;-81
2021/05/27 01:28:06;;;;;;;;;;;;;;;12.37;74.40;92677.78;2071492;69;20096;-86
2021/05/27 01:30:31;;;;;;;;;;;;;;;12.24;75.08;92682.06;2071972;69;20080;-81
2021/05/27 01:32:57;;;;;;;;;;;;;;;12.34;74.18;92690.34;2068324;69;20503;-86
2021/05/27 01:35:24;;;;;;;;;;;;;;;12.28;74.16;92687.16;2071842;69;20056;-82
2021/05/27 01:37:50;;;;;;;;;;;;;;;12.12;75.05;92687.03;2072075;69;20056;-83
2021/05/27 01:40:20;;;;;;;;;;;;;;;12.14;74.83;92693.53;2071861;69;20045;-85
2021/05/27 01:42:46;;;;;;;;;;;;;;;11.98;75.99;92683.44;2071941;69;20057;-83
2021/05/27 01:45:12;;;;;;;;;;;;;;;12.11;74.29;92682.75;2071927;69;20416;-83
2021/05/27 01:47:38;;;;;;;;;;;;;;;12.27;73.97;92680.06;2072045;69;20091;-83
2021/05/27 01:50:08;;;;;;;;;;;;;;;12.08;74.74;92681.88;2068583;69;20053;-83
2021/05/27 01:52:35;;;;;;;;;;;;;;;12.19;74.07;92680.38;2068690;69;20065;-84
2021/05/27 01:55:00;;;;;;;;;;;;;;;11.45;76.02;92681.91;2071745;69;20451;-82
2021/05/27 01:57:26;;;;;;;;;;;;;;;11.67;76.52;92682.44;2065819;69;20163;-83
2021/05/27 01:59:51;;;;;;;;;;;;;;;11.85;75.62;92677.09;2071779;69;20037;-84
2021/05/27 02:02:17;;;;;;;;;;;;;;;11.94;74.90;92676.19;2068528;69;20060;-83
2021/05/27 02:04:43;;;;;;;;;;;;;;;11.92;75.07;92670.47;2065747;69;20045;-83
2021/05/27 02:07:13;;;;;;;;;;;;;;;11.90;74.24;92664.69;2072009;69;20419;-82
2021/05/27 02:09:40;;;;;;;;;;;;;;;11.90;74.87;92678.78;2065839;69;20045;-84
2021/05/27 02:12:07;;;;;;;;;;;;;;;11.81;74.79;92684.56;2071958;69;20159;-84
2021/05/27 02:14:33;;;;;;;;;;;;;;;11.25;78.04;92694.81;2071853;69;20133;-82
2021/05/27 02:16:59;;;;;;;;;;;;;;;11.68;75.72;92692.38;2065766;69;20473;-83
2021/05/27 02:19:24;;;;;;;;;;;;;;;11.67;75.85;92690.88;2071962;69;20048;-82
2021/05/27 02:21:50;;;;;;;;;;;;;;;11.84;75.21;92686.94;2068547;69;20640;-83
2021/05/27 02:24:26;;;;;;;;;;;;;;;11.87;74.90;92685.69;2068667;69;20048;-82
2021/05/27 02:26:52;;;;;;;;;;;;;;;11.90;75.22;92683.69;2071797;69;20427;-82
2021/05/27 02:29:19;;;;;;;;;;;;;;;11.50;76.92;92679.31;2071857;69;20153;-83
2021/05/27 02:31:44;;;;;;;;;;;;;;;11.73;75.42;92679.22;2071897;69;20136;-85
2021/05/27 02:34:16;;;;;;;;;;;;;;;11.73;75.25;92661.56;2068555;69;20048;-82
2021/05/27 02:36:44;;;;;;;;;;;;;;;11.56;76.04;92669.13;2068553;69;20052;-84
2021/05/27 02:39:12;;;;;;;;;;;;;;;11.52;76.93;92665.34;2068464;69;20052;-83
2021/05/27 02:41:45;;;;;;;;;;;;;;;11.69;75.48;92665.63;2068422;69;20072;-84
2021/05/27 02:44:15;;;;;;;;;;;;;;;11.68;75.41;92669.81;2068486;69;20053;-86
2021/05/27 02:46:45;;;;;;;;;;;;;;;11.66;75.63;92652.03;2072211;69;20075;-82
2021/05/27 02:49:10;;;;;;;;;;;;;;;11.62;75.49;92655.34;2068486;69;20453;-84
2021/05/27 02:51:39;;;;;;;;;;;;;;;11.51;75.95;92652.59;2068501;69;20049;-83
2021/05/27 02:54:05;;;;;;;;;;;;;;;11.47;76.15;92655.19;2068323;69;20118;-83
2021/05/27 02:56:32;;;;;;;;;;;;;;;11.38;76.44;92651.16;2068371;69;20553;-82
2021/05/27 02:58:59;;;;;;;;;;;;;;;11.34;75.94;92648.84;2068496;69;20049;-83
2021/05/27 03:01:25;;;;;;;;;;;;;;;11.21;77.05;92666.41;2068559;69;20492;-83
2021/05/27 03:03:52;;;;;;;;;;;;;;;11.26;76.50;92664.56;2068468;69;20045;-83
2021/05/27 03:06:18;;;;;;;;;;;;;;;11.25;76.43;92663.81;2068428;69;20176;-83
2021/05/27 03:08:47;;;;;;;;;;;;;;;11.40;75.70;92663.28;2071794;69;20417;-83
2021/05/27 03:11:12;;;;;;;;;;;;;;;11.40;75.62;92657.66;2068314;69;20093;-82
2021/05/27 03:13:39;;;;;;;;;;;;;;;11.47;75.55;92661.56;2068233;69;20152;-82
2021/05/27 03:16:07;;;;;;;;;;;;;;;11.39;75.91;92663.91;2068410;69;20052;-83
2021/05/27 03:18:32;;;;;;;;;;;;;;;11.32;76.54;92653.66;2071768;69;20048;-83
2021/05/27 03:21:03;;;;;;;;;;;;;;;11.44;76.40;92643.06;2068427;69;20053;-83
2021/05/27 03:23:31;;;;;;;;;;;;;;;11.43;76.40;92644.41;2071756;69;20164;-83
2021/05/27 03:25:58;;;;;;;;;;;;;;;11.46;75.65;92643.19;2068335;69;20393;-84
2021/05/27 03:28:24;;;;;;;;;;;;;;;10.92;77.53;92639.41;2071745;69;20608;-82
2021/05/27 03:30:55;;;;;;;;;;;;;;;11.28;76.06;92642.16;2071943;69;20060;-86
2021/05/27 03:33:20;;;;;;;;;;;;;;;11.07;77.19;92640.97;2071775;69;20073;-83
2021/05/27 03:35:46;;;;;;;;;;;;;;;10.89;78.57;92637.81;2071866;69;20078;-82
2021/05/27 03:38:12;;;;;;;;;;;;;;;11.08;77.44;92642.44;2068347;69;20118;-83
2021/05/27 03:40:38;;;;;;;;;;;;;;;11.11;76.20;92651.75;2068380;69;20052;-83
2021/05/27 03:43:04;;;;;;;;;;;;;;;11.13;76.71;92649.03;2068313;69;20041;-82
2021/05/27 03:45:33;;;;;;;;;;;;;;;11.13;77.07;92649.78;2068304;69;20051;-83
2021/05/27 03:48:09;;;;;;;;;;;;;;;11.04;77.40;92647.84;2071844;69;20066;-82
2021/05/27 03:50:35;;;;;;;;;;;;;;;11.19;76.87;92655.03;2068370;69;20056;-82
2021/05/27 03:53:05;;;;;;;;;;;;;;;10.94;77.45;92650.78;2068446;69;20404;-84
2021/05/27 03:55:31;;;;;;;;;;;;;;;11.10;77.22;92653.81;2071646;69;20500;-83
2021/05/27 03:57:59;;;;;;;;;;;;;;;11.00;77.92;92653.25;2068346;69;20048;-83
2021/05/27 04:03:20;;;;;;;;;;;;;;;11.10;77.61;92651.00;2068409;69;20056;-82
2021/05/27 04:08:30;;;;;;;;;;;;;;;11.28;77.01;92651.31;2071823;69;20083;-83
2021/05/27 04:10:55;;;;;;;;;;;;;;;11.39;76.66;92647.72;2071608;69;20407;-82
2021/05/27 04:13:21;;;;;;;;;;;;;;;11.58;76.11;92640.31;2071779;69;20454;-83
2021/05/27 04:15:47;;;;;;;;;;;;;;;11.59;76.25;92656.63;2071813;69;20052;-84
2021/05/27 04:18:17;;;;;;;;;;;;;;;11.56;76.50;92643.75;2071925;69;20057;-84
2021/05/27 04:20:45;;;;;;;;;;;;;;;11.45;76.69;92644.50;2071681;69;20088;-82
2021/05/27 04:23:12;;;;;;;;;;;;;;;10.88;79.05;92650.44;2071781;69;20108;-85
2021/05/27 04:25:38;;;;;;;;;;;;;;;10.98;79.99;92661.56;2072129;69;20045;-83
2021/05/27 04:28:04;;;;;;;;;;;;;;;11.32;78.05;92657.19;2072193;69;20047;-83
2021/05/27 04:30:30;;;;;;;;;;;;;;;11.19;78.44;92671.94;2072214;69;20140;-83
2021/05/27 04:33:04;;;;;;;;;;;;;;;10.99;79.81;92662.28;2068838;69;20049;-82
2021/05/27 04:35:36;;;;;;;;;;;;;;;10.79;80.05;92664.66;2072234;69;20108;-85
2021/05/27 04:38:03;;;;;;;;;;;;;;;11.08;79.16;92667.06;2072200;69;20083;-85
2021/05/27 04:40:29;;;;;;;;;;;;;;;11.37;78.08;92684.25;2072043;69;20049;-82
2021/05/27 04:42:55;;;;;;;;;;;;;;;11.28;78.49;92684.41;2072145;69;20511;-83
2021/05/27 04:45:20;;;;;;;;;;;;;;;11.28;78.75;92679.50;2072203;69;20522;-84
2021/05/27 04:47:46;;;;;;;;;;;;;;;11.32;77.33;92676.94;2072206;69;20484;-84
2021/05/27 04:50:12;;;;;;;;;;;;;;;10.87;78.70;92670.78;2068999;69;20088;-83
2021/05/27 04:52:39;;;;;;;;;;;;;;;11.40;77.20;92682.28;2072122;69;20053;-84
2021/05/27 04:55:05;;;;;;;;;;;;;;;11.60;77.17;92688.34;2072042;69;20049;-83
2021/05/27 04:57:30;;;;;;;;;;;;;;;11.58;77.52;92685.41;2072141;69;20044;-84
2021/05/27 04:59:56;;;;;;;;;;;;;;;11.67;77.44;92690.16;2072357;69;20048;-85
2021/05/27 05:02:21;;;;;;;;;;;;;;;11.83;76.54;92698.84;2072207;69;20055;-85
2021/05/27 05:04:47;;;;;;;;;;;;;;;11.75;76.74;92689.88;2072141;69;20037;-87
2021/05/27 05:07:13;;;;;;;;;;;;;;;11.58;77.18;92700.22;2068848;69;20044;-84
2021/05/27 05:09:39;;;;;;;;;;;;;;;11.49;78.01;92691.94;2072095;69;20067;-84
2021/05/27 05:12:04;;;;;;;;;;;;;;;12.04;76.29;92697.84;2072248;69;20483;-87
2021/05/27 05:14:30;;;;;;;;;;;;;;;12.23;75.86;92691.84;2072122;69;20044;-88
2021/05/27 05:16:55;;;;;;;;;;;;;;;12.40;75.30;92690.66;2072317;69;20083;-89
2021/05/27 05:19:21;;;;;;;;;;;;;;;12.36;75.48;92693.25;2072280;69;20447;-88
2021/05/27 05:21:47;;;;;;;;;;;;;;;12.40;74.43;92687.81;2076102;69;20052;-85
2021/05/27 05:24:12;;;;;;;;;;;;;;;11.74;76.63;92677.88;2072880;69;20468;-83
2021/05/27 05:26:38;;;;;;;;;;;;;;;11.14;79.17;92690.69;2072072;69;20061;-88
2021/05/27 05:29:03;;;;;;;;;;;;;;;11.31;79.48;92691.63;2072112;69;20422;-89
2021/05/27 05:31:29;;;;;;;;;;;;;;;11.91;78.17;92693.63;2072087;69;20213;-89
2021/05/27 05:33:57;;;;;;;;;;;;;;;11.79;77.56;92698.56;2072201;69;20586;-87
2021/05/27 05:36:23;;;;;;;;;;;;;;;11.90;77.39;92690.06;2072068;69;20040;-86
2021/05/27 05:38:49;;;;;;;;;;;;;;;11.89;77.13;92694.25;2072120;69;20052;-89
2021/05/27 05:41:15;;;;;;;;;;;;;;;12.32;76.43;92704.31;2071942;69;20052;-89
2021/05/27 05:43:40;;;;;;;;;;;;;;;12.01;76.82;92697.03;2072997;69;20055;-90
2021/05/27 05:46:06;;;;;;;;;;;;;;;11.76;76.86;92700.53;2072768;69;20052;-87
2021/05/27 05:48:34;;;;;;;;;;;;;;;11.91;77.08;92705.66;2072104;69;20097;-88
2021/05/27 05:51:00;;;;;;;;;;;;;;;12.06;76.33;92700.81;2072057;69;20084;-90
2021/05/27 05:53:26;;;;;;;;;;;;;;;11.62;78.65;92708.19;2072090;69;20049;-85
2021/05/27 05:55:52;;;;;;;;;;;;;;;11.73;77.77;92710.25;2071941;69;20075;-89
2021/05/27 05:58:18;;;;;;;;;;;;;;;11.98;76.43;92723.66;2072153;69;20144;-89
2021/05/27 06:00:44;;;;;;;;;;;;;;;12.22;75.46;92715.78;2072005;69;20392;-87
2021/05/27 06:03:10;;;;;;;;;;;;;;;11.94;76.60;92723.44;2072060;69;20097;-87
2021/05/27 06:05:55;;;;;;;;;;;;;;;11.68;77.24;92731.09;2070019;69;20052;-87
2021/05/27 06:08:31;;;;;;;;;;;;;;;12.01;77.54;92727.34;2068666;69;20072;-89
2021/05/27 06:10:57;;;;;;;;;;;;;;;12.19;75.75;92734.72;2071902;69;20048;-88
2021/05/27 06:13:22;;;;;;;;;;;;;;;12.44;74.64;92730.41;2071986;69;20052;-88
2021/05/27 06:15:48;;;;;;;;;;;;;;;12.57;74.32;92731.81;2072004;69;20415;-89
2021/05/27 06:18:15;;;;;;;;;;;;;;;11.83;76.07;92736.22;2072065;69;20419;-87
2021/05/27 06:20:52;;;;;;;;;;;;;;;12.32;75.74;92735.38;2068708;69;20508;-89
2021/05/27 06:23:21;;;;;;;;;;;;;;;12.51;74.52;92734.28;2068586;69;20087;-89
2021/05/27 06:25:47;;;;;;;;;;;;;;;12.55;75.22;92742.97;2071922;69;20052;-89
2021/05/27 06:28:13;;;;;;;;;;;;;;;12.66;74.24;92739.34;2072077;69;20057;-89
2021/05/27 06:30:38;;;;;;;;;;;;;;;12.78;74.34;92742.06;2072061;69;20064;-88
2021/05/27 06:33:07;;;;;;;;;;;;;;;12.80;74.19;92748.56;2072030;69;20064;-90
2021/05/27 06:35:32;;;;;;;;;;;;;;;12.56;74.31;92745.19;2071972;69;20060;-89
2021/05/27 06:37:59;;;;;;;;;;;;;;;12.23;75.39;92739.09;2072007;69;20131;-88
2021/05/27 06:40:27;;;;;;;;;;;;;;;12.56;74.49;92747.28;2071743;69;20573;-89
2021/05/27 06:42:53;;;;;;;;;;;;;;;12.57;74.96;92748.75;2071976;69;20040;-88
2021/05/27 06:45:20;;;;;;;;;;;;;;;12.69;75.09;92750.13;2072374;69;20052;-88
2021/05/27 06:47:49;;;;;;;;;;;;;;;12.72;74.25;92748.13;2077919;69;20435;-89
2021/05/27 06:50:15;;;;;;;;;;;;;;;12.43;75.51;92743.06;2072056;69;20575;-87
2021/05/27 06:52:40;;;;;;;;;;;;;;;12.15;75.40;92745.06;2071970;69;20118;-88
2021/05/27 06:55:07;;;;;;;;;;;;;;;12.53;75.92;92745.69;2071740;69;20061;-90
2021/05/27 06:57:34;;;;;;;;;;;;;;;11.94;77.48;92746.72;2072013;69;20049;-83
2021/05/27 06:59:59;;;;;;;;;;;;;;;12.53;75.97;92754.91;2065691;69;20477;-90
2021/05/27 07:02:25;;;;;;;;;;;;;;;12.31;75.68;92751.56;2071946;69;20049;-83
2021/05/27 07:04:50;;;;;;;;;;;;;;;12.67;75.05;92757.75;2071896;69;20182;-88
2021/05/27 07:07:15;;;;;;;;;;;;;;;12.76;75.38;92756.84;2071863;69;20056;-88
2021/05/27 07:09:41;;;;;;;;;;;;;;;12.63;74.90;92761.09;2071890;69;20068;-88
2021/05/27 07:12:07;;;;;;;;;;;;;;;12.76;74.92;92759.66;2068499;69;20056;-88
2021/05/27 07:14:33;;;;;;;;;;;;;;;12.20;77.47;92750.28;2071851;69;20136;-86
2021/05/27 07:16:58;;;;;;;;;;;;;;;12.10;78.56;92763.84;2071830;69;20044;-88
2021/05/27 07:19:24;;;;;;;;;;;;;;;11.53;80.16;92757.00;2071781;69;20052;-88
2021/05/27 07:21:50;;;;;;;;;;;;;;;11.75;79.08;92758.31;2071786;69;20055;-89
2021/05/27 07:24:16;;;;;;;;;;;;;;;11.45;79.38;92746.75;2071840;69;20044;-87
2021/05/27 07:26:41;;;;;;;;;;;;;;;11.70;78.27;92754.50;2071715;69;20523;-90
2021/05/27 07:29:07;;;;;;;;;;;;;;;11.95;77.15;92756.66;2071809;69;20075;-89
2021/05/27 07:31:33;;;;;;;;;;;;;;;12.05;77.25;92747.28;2068470;69;20497;-89
2021/05/27 07:34:00;;;;;;;;;;;;;;;12.39;75.74;92751.31;2071795;69;20424;-90
2021/05/27 07:36:26;;;;;;;;;;;;;;;12.68;75.19;92742.28;2071830;69;20048;-90
2021/05/27 07:38:51;;;;;;;;;;;;;;;11.98;76.52;92739.84;2071899;69;20075;-89
2021/05/27 07:41:17;;;;;;;;;;;;;;;12.00;76.09;92746.31;2071621;69;20501;-88
2021/05/27 07:43:43;;;;;;;;;;;;;;;12.26;75.30;92751.97;2071767;69;20051;-90
2021/05/27 07:46:08;;;;;;;;;;;;;;;12.77;73.57;92749.09;2071866;69;20140;-89
2021/05/27 07:48:34;;;;;;;;;;;;;;;12.39;74.88;92754.84;2071854;69;20052;-86
2021/05/27 07:50:59;;;;;;;;;;;;;;;12.14;74.95;92752.03;2071751;69;20479;-92
2021/05/27 07:53:25;;;;;;;;;;;;;;;12.81;74.64;92750.03;2071702;69;20100;-92
2021/05/27 07:55:51;;;;;;;;;;;;;;;12.92;72.30;92752.06;2071592;69;20476;-92
2021/05/27 07:58:16;;;;;;;;;;;;;;;12.34;75.15;92758.81;2071808;69;20056;-93
2021/05/27 08:00:42;;;;;;;;;;;;;;;12.17;75.12;92759.25;2072278;69;20147;-92
2021/05/27 08:03:07;;;;;;;;;;;;;;;11.68;77.12;92759.28;2072256;69;20511;-88
2021/05/27 08:05:34;;;;;;;;;;;;;;;12.30;75.17;92767.06;2072424;69;20051;-91
2021/05/27 08:08:00;;;;;;;;;;;;;;;11.85;75.47;92761.72;2072490;69;20179;-93
2021/05/27 08:10:25;;;;;;;;;;;;;;;12.40;73.92;92761.22;2072522;69;20053;-94
2021/05/27 08:12:51;;;;;;;;;;;;;;;12.81;73.13;92755.69;2077792;69;20066;-89
2021/05/27 08:15:17;;;;;;;;;;;;;;;13.15;70.89;92750.41;2075355;69;20057;-92
2021/05/27 08:17:42;;;;;;;;;;;;;;;13.37;69.83;92754.38;2072412;69;20476;-94
2021/05/27 08:20:09;;;;;;;;;;;;;;;13.56;70.52;92763.81;2073319;69;20051;-81
2021/05/27 08:22:34;;;;;;;;;;;;;;;12.65;72.29;92758.38;2077256;69;20130;-84
2021/05/27 08:25:01;;;;;;;;;;;;;;;13.63;70.06;92755.00;2073202;69;20554;-90
2021/05/27 08:27:27;;;;;;;;;;;;;;;13.51;68.85;92760.03;2072245;69;20144;-94
2021/05/27 08:29:52;;;;;;;;;;;;;;;13.53;68.85;92759.41;2072242;69;20139;-90
2021/05/27 08:32:18;;;;;;;;;;;;;;;12.58;71.06;92761.50;2072402;69;20499;-95
2021/05/27 08:34:43;;;;;;;;;;;;;;;13.49;70.37;92774.09;2072224;69;20044;-92
2021/05/27 08:37:09;;;;;;;;;;;;;;;13.57;68.96;92774.50;2072274;69;20044;-84
2021/05/27 08:39:34;;;;;;;;;;;;;;;13.05;69.79;92770.38;2072203;69;20476;-89
2021/05/27 08:42:00;;;;;;;;;;;;;;;13.33;69.80;92767.59;2072119;69;20044;-89
2021/05/27 08:44:26;;;;;;;;;;;;;;;14.02;68.62;92765.41;2072223;69;20494;-90
2021/05/27 08:46:51;;;;;;;;;;;;;;;14.24;67.30;92763.66;2068835;69;20660;-90
2021/05/27 08:49:17;;;;;;;;;;;;;;;14.10;67.12;92760.13;2072208;69;20055;-91
2021/05/27 08:51:43;;;;;;;;;;;;;;;14.51;67.09;92764.94;2072170;69;20052;-89
2021/05/27 08:54:08;;;;;;;;;;;;;;;14.75;66.83;92771.00;2072067;69;20088;-90
2021/05/27 08:56:34;;;;;;;;;;;;;;;14.63;66.87;92768.34;2072028;69;20049;-87
2021/05/27 08:59:00;;;;;;;;;;;;;;;14.46;68.24;92763.25;2072165;69;20049;-86
2021/05/27 09:01:25;;;;;;;;;;;;;;;14.93;65.86;92771.84;2072106;69;20106;-87
2021/05/27 09:03:53;;;;;;;;;;;;;;;15.08;63.82;92764.75;2072134;69;20076;-85
2021/05/27 09:06:19;;;;;;;;;;;;;;;14.52;64.59;92772.06;2069112;69;20060;-86
2021/05/27 09:08:44;;;;;;;;;;;;;;;14.57;64.58;92770.91;2072268;69;20049;-87
2021/05/27 09:11:11;;;;;;;;;;;;;;;13.61;66.27;92771.88;2071767;69;20060;-82
2021/05/27 09:13:37;;;;;;;;;;;;;;;13.57;67.17;92768.84;2072129;69;20045;-84
2021/05/27 09:16:06;;;;;;;;;;;;;;;14.09;65.44;92777.75;2072088;69;20048;-83
2021/05/27 09:18:33;;;;;;;;;;;;;;;14.86;64.87;92780.72;2072114;69;20287;-83
2021/05/27 09:20:58;;;;;;;;;;;;;;;14.80;64.45;92778.34;2072032;69;20119;-85
2021/05/27 09:23:24;;;;;;;;;;;;;;;13.35;66.73;92779.75;2072109;69;20079;-84
2021/05/27 09:25:51;;;;;;;;;;;;;;;12.73;68.89;92778.56;2072017;69;20048;-83
2021/05/27 09:28:18;;;;;;;;;;;;;;;12.98;67.09;92783.44;2068909;69;20134;-84
2021/05/27 09:30:51;;;;;;;;;;;;;;;12.70;67.88;92785.50;2072060;69;20136;-84
2021/05/27 09:33:16;;;;;;;;;;;;;;;13.68;66.35;92784.22;2072091;69;20064;-85
2021/05/27 09:35:41;;;;;;;;;;;;;;;13.28;67.53;92782.88;2071943;69;20489;-85
2021/05/27 09:38:07;;;;;;;;;;;;;;;13.47;66.39;92790.97;2072435;69;20044;-85
2021/05/27 09:40:34;;;;;;;;;;;;;;;12.75;67.90;92789.25;2072317;69;20512;-86
2021/05/27 09:43:00;;;;;;;;;;;;;;;13.30;67.91;92805.59;2072192;69;20084;-87
2021/05/27 09:45:27;;;;;;;;;;;;;;;13.13;68.26;92796.22;2072200;69;20143;-86
2021/05/27 09:47:52;;;;;;;;;;;;;;;13.46;66.75;92803.63;2072078;69;20055;-85
2021/05/27 09:50:18;;;;;;;;;;;;;;;13.05;68.82;92798.63;2072024;69;20048;-84
2021/05/27 09:52:48;;;;;;;;;;;;;;;13.90;69.28;92795.94;2072251;69;20121;-83
2021/05/27 09:55:14;;;;;;;;;;;;;;;14.57;65.70;92796.41;2072139;69;20056;-91
2021/05/27 09:57:44;;;;;;;;;;;;;;;15.08;64.29;92795.19;2072189;69;20048;-90
2021/05/27 10:00:21;;;;;;;;;;;;;;;15.24;64.06;92788.13;2072091;69;20044;-87
2021/05/27 10:02:48;;;;;;;;;;;;;;;15.42;61.58;92791.06;2072453;69;20052;-88
2021/05/27 10:05:14;;;;;;;;;;;;;;;14.67;63.54;92791.22;2072373;69;20144;-88
2021/05/27 10:07:58;;;;;;;;;;;;;;;15.63;62.41;92798.38;2072259;69;20141;-80
2021/05/27 10:10:24;;;;;;;;;;;;;;;16.84;59.38;92794.84;2072494;69;20068;-88
2021/05/27 10:12:51;;;;;;;;;;;;;;;17.89;56.80;92798.06;2069217;69;20052;-81
2021/05/27 10:15:25;;;;;;;;;;;;;;;17.50;57.70;92798.75;2072109;69;20136;-86
2021/05/27 10:17:54;;;;;;;;;;;;;;;16.46;57.58;92806.13;2072199;69;20044;-89
2021/05/27 10:20:21;;;;;;;;;;;;;;;15.73;58.54;92796.00;2072166;69;20061;-85
2021/05/27 10:22:48;;;;;;;;;;;;;;;16.15;57.73;92798.44;2072543;69;20163;-88
2021/05/27 10:25:16;;;;;;;;;;;;;;;16.49;58.27;92788.50;2072229;69;20439;-87
2021/05/27 10:27:43;;;;;;;;;;;;;;;16.52;57.02;92795.72;2072357;69;20073;-93
2021/05/27 10:30:09;;;;;;;;;;;;;;;16.40;57.94;92795.25;2072596;69;20049;-87
2021/05/27 10:32:45;;;;;;;;;;;;;;;14.96;58.52;92795.38;2072177;69;20064;-88
2021/05/27 10:35:11;;;;;;;;;;;;;;;15.47;58.37;92795.53;2072105;69;20382;-88
2021/05/27 10:37:40;;;;;;;;;;;;;;;13.88;59.40;92790.91;2071992;69;20041;-85
2021/05/27 10:40:11;;;;;;;;;;;;;;;15.04;58.64;92790.06;2071814;69;20059;-86
2021/05/27 10:43:10;;;;;;;;;;;;;;;15.58;57.14;92784.63;2071937;69;20579;-86
2021/05/27 10:45:54;;;;;;;;;;;;;;;15.46;57.49;92784.84;2071911;69;20126;-87
2021/05/27 10:48:21;;;;;;;;;;;;;;;14.40;58.50;92789.19;2071944;69;20044;-87
2021/05/27 10:53:40;;;;;;;;;;;;;;;15.30;59.74;92790.50;2072051;69;20123;-84
2021/05/27 10:56:09;;;;;;;;;;;;;;;15.60;56.98;92787.56;2069668;69;20044;-87
2021/05/27 10:58:47;;;;;;;;;;;;;;;15.72;56.47;92783.19;2072060;69;20084;-86
2021/05/27 11:01:14;;;;;;;;;;;;;;;15.48;56.92;92782.09;2072037;69;20074;-86
2021/05/27 11:03:47;;;;;;;;;;;;;;;14.89;58.14;92782.28;2072394;69;20048;-83
2021/05/27 11:06:16;;;;;;;;;;;;;;;15.65;56.77;92780.72;2071931;69;20049;-86
2021/05/27 11:08:42;;;;;;;;;;;;;;;14.72;57.90;92773.03;2071981;69;20064;-85
2021/05/27 11:11:27;;;;;;;;;;;;;;;15.36;56.46;92768.09;2071565;69;20114;-86
2021/05/27 11:14:11;;;;;;;;;;;;;;;15.29;56.74;92771.31;2071062;69;20054;-90
2021/05/27 11:16:56;;;;;;;;;;;;;;;14.93;58.51;92777.53;2070660;69;20075;-87
2021/05/27 11:22:46;;;;;;;;;;;;;;;15.45;56.13;92777.72;2069164;69;20056;-85
2021/05/27 11:25:15;;;;;;;;;;;;;;;15.86;56.01;92782.34;2070864;69;20444;-85
2021/05/27 11:27:41;;;;;;;;;;;;;;;15.75;55.90;92776.19;2071887;69;20048;-83
2021/05/27 11:30:25;;;;;;;;;;;;;;;15.61;56.46;92783.34;2071997;69;20598;-80
2021/05/27 11:32:53;;;;;;;;;;;;;;;16.01;56.90;92773.75;2072080;69;20205;-79
2021/05/27 11:35:20;;;;;;;;;;;;;;;17.19;54.88;92765.63;2072705;69;20057;-81
2021/05/27 11:37:47;;;;;;;;;;;;;;;16.47;55.82;92771.38;2072501;69;20104;-81
2021/05/27 11:40:14;;;;;;;;;;;;;;;16.55;53.98;92767.41;2072609;69;20056;-82
2021/05/27 11:42:40;;;;;;;;;;;;;;;17.07;54.68;92770.84;2069171;69;20045;-84
2021/05/27 11:45:07;;;;;;;;;;;;;;;16.74;55.98;92767.50;2069098;69;20103;-80
2021/05/27 11:47:33;;;;;;;;;;;;;;;17.00;54.52;92764.22;2072610;69;20161;-85
2021/05/27 11:50:01;;;;;;;;;;;;;;;16.54;55.21;92766.66;2072582;69;20519;-84
2021/05/27 11:52:27;;;;;;;;;;;;;;;17.63;53.53;92772.19;2071959;69;20056;-83
2021/05/27 11:54:53;;;;;;;;;;;;;;;16.55;52.70;92767.41;2072021;69;20053;-83
2021/05/27 11:57:20;;;;;;;;;;;;;;;15.85;52.43;92778.78;2068962;69;20049;-85
2021/05/27 11:59:58;;;;;;;;;;;;;;;15.90;53.27;92771.16;2072384;69;20048;-86
2021/05/27 12:02:46;;;;;;;;;;;;;;;16.35;52.11;92764.47;2072500;69;20049;-82
2021/05/27 12:05:28;;;;;;;;;;;;;;;17.37;50.17;92768.41;2072513;69;20155;-87
2021/05/27 12:07:57;;;;;;;;;;;;;;;17.34;49.52;92761.19;2072208;69;20126;-86
2021/05/27 12:10:23;;;;;;;;;;;;;;;16.70;51.83;92764.47;2072191;69;20095;-85
2021/05/27 12:12:48;;;;;;;;;;;;;;;16.06;53.22;92766.13;2068653;69;20083;-83
2021/05/27 12:15:15;;;;;;;;;;;;;;;15.15;55.41;92772.13;2072353;69;20048;-80
2021/05/27 12:17:44;;;;;;;;;;;;;;;15.16;55.96;92767.19;2070920;69;20075;-83
2021/05/27 12:20:15;;;;;;;;;;;;;;;15.07;55.75;92780.28;2072399;69;20073;-86
2021/05/27 12:22:55;;;;;;;;;;;;;;;15.12;58.47;92781.94;2072361;69;20067;-80
2021/05/27 12:25:25;;;;;;;;;;;;;;;16.30;56.08;92786.28;2072198;69;20056;-81
2021/05/27 12:27:53;;;;;;;;;;;;;;;15.86;56.99;92794.41;2071606;69;20553;-79
2021/05/27 12:30:28;;;;;;;;;;;;;;;15.58;58.06;92808.09;2071729;69;20134;-82
2021/05/27 12:32:55;;;;;;;;;;;;;;;14.30;60.78;92810.63;2072388;69;20056;-80
2021/05/27 12:35:26;;;;;;;;;;;;;;;14.12;62.64;92810.47;2072400;69;20511;-80
2021/05/27 12:37:58;;;;;;;;;;;;;;;15.06;61.21;92831.94;2072372;69;20063;-81
2021/05/27 12:40:26;;;;;;;;;;;;;;;15.50;59.47;92845.34;2072270;69;20164;-79
2021/05/27 12:42:53;;;;;;;;;;;;;;;15.83;60.47;92857.41;2072470;69;20136;-82
2021/05/27 12:45:30;;;;;;;;;;;;;;;14.44;63.45;92865.88;2071975;69;20087;-80
2021/05/27 12:48:13;;;;;;;;;;;;;;;13.49;65.38;92873.06;2068773;69;20060;-82
2021/05/27 12:50:40;;;;;;;;;;;;;;;14.39;64.75;92858.53;2072293;69;20064;-86
2021/05/27 12:53:20;;;;;;;;;;;;;;;16.17;62.16;92863.84;2072402;69;20049;-87
2021/05/27 12:55:46;;;;;;;;;;;;;;;15.75;59.24;92869.88;2072144;69;20490;-82
2021/05/27 12:58:11;;;;;;;;;;;;;;;17.24;57.65;92864.69;2072432;69;20515;-88
2021/05/27 13:00:44;;;;;;;;;;;;;;;17.30;55.77;92858.50;2072414;69;20079;-87
2021/05/27 13:03:10;;;;;;;;;;;;;;;16.76;56.85;92867.06;2072529;69;20143;-80